Time;durP1;ratioP1;P1;durP2;ratioP2;P2;SDS_P1;SDS_P2;PMS_P1;PMS_P2;Temp;Humidity;BMP_temperature;BMP_pressure;BME280_temperature;BME280_humidity;BME280_pressure;Samples;Min_cycle;Max_cycle;Signal;HPM_P1;HPM_P2
2022/12/31 00:00:09;;;;;;;49.40;26.83;;;;;;;1.73;100.00;99704.66;6097799;23;20239;-79
2022/12/31 00:02:37;;;;;;;45.10;27.70;;;;;;;1.76;100.00;99702.53;6097916;23;20215;-79
2022/12/31 00:05:06;;;;;;;48.57;26.93;;;;;;;1.76;100.00;99705.19;6158453;23;20209;-80
2022/12/31 00:07:34;;;;;;;52.63;26.50;;;;;;;1.76;100.00;99712.28;6251443;23;20204;-79
2022/12/31 00:10:00;;;;;;;50.83;26.90;;;;;;;1.74;100.00;99701.03;6174824;23;20578;-79
2022/12/31 00:12:26;;;;;;;49.23;26.60;;;;;;;1.75;100.00;99702.69;6249184;23;20230;-79
2022/12/31 00:14:53;;;;;;;52.07;26.30;;;;;;;1.69;100.00;99700.69;6249968;23;20590;-78
2022/12/31 00:17:20;;;;;;;51.43;27.13;;;;;;;1.69;100.00;99701.50;6251455;23;20279;-80
2022/12/31 00:19:46;;;;;;;41.93;26.50;;;;;;;1.69;100.00;99690.13;6221558;23;20205;-78
2022/12/31 00:22:13;;;;;;;55.47;27.80;;;;;;;1.77;100.00;99693.59;6245804;23;21174;-79
2022/12/31 00:24:41;;;;;;;48.40;27.67;;;;;;;1.71;100.00;99686.34;6245895;23;20274;-78
2022/12/31 00:27:07;;;;;;;50.90;26.27;;;;;;;1.68;100.00;99681.34;6245907;23;20208;-79
2022/12/31 00:29:34;;;;;;;53.47;28.17;;;;;;;1.69;100.00;99683.03;6246089;23;20692;-79
2022/12/31 00:32:00;;;;;;;71.40;30.90;;;;;;;1.70;100.00;99683.84;6245376;23;20216;-77
2022/12/31 00:34:27;;;;;;;50.93;29.30;;;;;;;1.65;100.00;99686.16;6245757;23;20251;-78
2022/12/31 00:36:54;;;;;;;49.00;28.57;;;;;;;1.64;100.00;99714.38;6245883;23;20236;-79
2022/12/31 00:39:20;;;;;;;63.63;28.60;;;;;;;1.71;100.00;99696.91;6245797;23;20177;-78
2022/12/31 00:41:47;;;;;;;104.40;29.83;;;;;;;1.69;100.00;99704.16;6247080;23;20655;-79
2022/12/31 00:44:13;;;;;;;55.27;29.37;;;;;;;1.68;100.00;99693.75;6219621;23;20211;-78
2022/12/31 00:46:40;;;;;;;71.03;33.67;;;;;;;1.64;100.00;99671.28;6219796;23;20204;-78
2022/12/31 00:49:05;;;;;;;51.57;29.43;;;;;;;1.63;100.00;99672.28;6222906;23;20295;-79
2022/12/31 00:51:32;;;;;;;53.50;30.30;;;;;;;1.65;100.00;99678.22;6248425;23;20212;-79
2022/12/31 00:53:59;;;;;;;53.83;30.60;;;;;;;1.59;100.00;99692.06;6246030;23;20219;-79
2022/12/31 00:56:27;;;;;;;52.77;29.63;;;;;;;1.62;100.00;99695.22;6204247;23;20216;-78
2022/12/31 00:58:54;;;;;;;49.97;29.10;;;;;;;1.63;100.00;99704.00;6246100;23;20215;-78
2022/12/31 01:01:32;;;;;;;50.60;29.57;;;;;;;1.64;100.00;99711.72;6247410;23;20204;-78
2022/12/31 01:04:08;;;;;;;54.03;28.80;;;;;;;1.60;100.00;99709.56;6247186;23;20235;-79
2022/12/31 01:06:35;;;;;;;51.83;29.40;;;;;;;1.63;100.00;99739.13;6220250;23;20204;-78
2022/12/31 01:09:03;;;;;;;53.33;28.37;;;;;;;1.67;100.00;99722.00;6247230;23;20212;-78
2022/12/31 01:11:29;;;;;;;51.80;29.07;;;;;;;1.66;100.00;99725.63;6247254;23;20208;-79
2022/12/31 01:14:02;;;;;;;78.83;28.10;;;;;;;1.60;100.00;99730.69;6248226;23;20213;-78
2022/12/31 01:16:50;;;;;;;57.93;28.33;;;;;;;1.71;100.00;99712.75;6219545;23;20267;-78
2022/12/31 01:19:20;;;;;;;60.60;28.67;;;;;;;1.76;100.00;99746.63;6249700;23;20205;-78
2022/12/31 01:21:47;;;;;;;54.20;28.17;;;;;;;1.69;100.00;99711.25;6222409;23;20234;-78
2022/12/31 01:24:14;;;;;;;58.00;28.33;;;;;;;1.64;100.00;99721.47;6248624;23;20196;-78
2022/12/31 01:26:42;;;;;;;51.03;28.10;;;;;;;1.67;100.00;99732.56;6222183;23;20201;-78
2022/12/31 01:29:10;;;;;;;46.43;27.30;;;;;;;1.65;100.00;99729.22;6221165;23;20587;-79
2022/12/31 01:31:37;;;;;;;53.53;29.03;;;;;;;1.68;100.00;99734.19;6220137;23;20213;-78
2022/12/31 01:34:06;;;;;;;61.83;27.77;;;;;;;1.73;100.00;99736.34;6249255;23;20204;-79
2022/12/31 01:36:34;;;;;;;46.47;26.67;;;;;;;1.66;100.00;99753.84;6247841;23;20196;-78
2022/12/31 01:39:03;;;;;;;51.73;28.40;;;;;;;1.62;100.00;99755.16;6221179;23;20204;-79
2022/12/31 01:41:33;;;;;;;51.57;27.83;;;;;;;1.64;100.00;99727.56;6220332;23;20661;-78
2022/12/31 01:44:21;;;;;;;51.77;28.73;;;;;;;1.65;100.00;99720.47;6246518;23;20220;-78
2022/12/31 01:46:57;;;;;;;55.87;28.73;;;;;;;1.71;100.00;99736.53;6226089;23;20212;-78
2022/12/31 01:49:36;;;;;;;52.67;28.30;;;;;;;1.69;100.00;99722.63;6220171;23;20216;-78
2022/12/31 01:52:08;;;;;;;54.70;28.87;;;;;;;1.70;100.00;99739.31;6219295;23;20201;-79
2022/12/31 01:54:39;;;;;;;56.67;28.50;;;;;;;1.76;100.00;99755.38;6246378;23;20212;-78
2022/12/31 01:57:06;;;;;;;56.03;29.27;;;;;;;1.71;100.00;99723.31;6246142;23;20275;-76
2022/12/31 01:59:33;;;;;;;47.93;27.63;;;;;;;1.68;100.00;99739.47;6245880;23;20546;-78
2022/12/31 02:02:00;;;;;;;49.03;28.67;;;;;;;1.64;100.00;99740.78;6245736;23;20653;-78
2022/12/31 02:04:27;;;;;;;54.13;29.73;;;;;;;1.63;100.00;99752.31;6218996;23;20215;-78
2022/12/31 02:07:02;;;;;;;66.07;29.60;;;;;;;1.69;100.00;99751.69;6246659;23;20204;-78
2022/12/31 02:09:29;;;;;;;50.93;28.53;;;;;;;1.52;100.00;99751.78;6220188;23;20212;-79
2022/12/31 02:11:56;;;;;;;67.80;30.17;;;;;;;1.63;100.00;99757.59;6219693;23;20615;-79
2022/12/31 02:14:29;;;;;;;53.37;27.30;;;;;;;1.67;100.00;99764.25;6246197;23;20276;-78
2022/12/31 02:17:11;;;;;;;69.33;29.87;;;;;;;1.71;100.00;99755.00;6220483;23;20240;-78
2022/12/31 02:20:22;;;;;;;71.97;30.07;;;;;;;1.64;100.00;99750.50;6246756;23;20216;-78
2022/12/31 02:23:07;;;;;;;54.80;29.80;;;;;;;1.66;100.00;99754.66;6246372;23;20212;-78
2022/12/31 02:25:36;;;;;;;77.57;30.33;;;;;;;1.59;100.00;99768.66;6247019;23;20596;-78
2022/12/31 02:28:25;;;;;;;56.00;30.77;;;;;;;1.60;100.00;99770.31;6245597;23;20207;-78
2022/12/31 02:31:20;;;;;;;56.07;30.27;;;;;;;1.66;100.00;99761.75;6246057;23;20209;-79
2022/12/31 02:33:53;;;;;;;62.90;30.83;;;;;;;1.70;100.00;99763.09;6239976;23;20231;-80
2022/12/31 02:36:23;;;;;;;57.10;30.53;;;;;;;1.73;100.00;99783.88;6249853;23;20235;-79
2022/12/31 02:38:50;;;;;;;52.53;29.27;;;;;;;1.67;100.00;99785.38;6250370;23;20718;-79
2022/12/31 02:44:23;;;;;;;52.83;29.37;;;;;;;1.66;100.00;99796.09;6249519;23;20673;-79
2022/12/31 02:47:08;;;;;;;44.77;27.20;;;;;;;1.60;100.00;99789.63;6250978;23;20278;-80
2022/12/31 02:49:49;;;;;;;41.73;25.87;;;;;;;1.62;100.00;99792.94;6248830;23;20213;-79
2022/12/31 02:52:46;;;;;;;43.00;25.90;;;;;;;1.63;100.00;99794.56;6248656;23;20216;-79
2022/12/31 02:55:18;;;;;;;39.10;25.43;;;;;;;1.64;100.00;99793.59;6222708;23;20239;-80
2022/12/31 02:58:10;;;;;;;34.60;23.77;;;;;;;1.61;100.00;99796.56;6222972;23;20260;-80
2022/12/31 03:03:36;;;;;;;32.90;22.27;;;;;;;1.61;100.00;99788.66;6249530;23;20213;-79
2022/12/31 03:06:03;;;;;;;32.93;22.00;;;;;;;1.59;100.00;99790.59;6221906;23;20208;-79
2022/12/31 03:08:30;;;;;;;29.90;20.93;;;;;;;1.54;100.00;99792.88;6222795;23;20215;-79
2022/12/31 03:10:56;;;;;;;32.80;22.13;;;;;;;1.49;100.00;99784.63;6248486;23;20207;-79
2022/12/31 03:13:23;;;;;;;30.07;21.77;;;;;;;1.40;100.00;99793.47;6248859;23;20693;-79
2022/12/31 03:15:50;;;;;;;31.27;20.77;;;;;;;1.43;100.00;99795.81;6248563;23;20205;-78
2022/12/31 03:22:26;;;;;;;28.80;21.17;;;;;;;1.37;100.00;99801.72;6248371;23;20205;-79
2022/12/31 03:26:42;;;;;;;36.03;21.83;;;;;;;1.43;100.00;99813.47;6248782;23;20726;-79
2022/12/31 03:29:08;;;;;;;34.50;21.23;;;;;;;1.41;100.00;99815.44;6247865;23;20203;-79
2022/12/31 03:31:36;;;;;;;38.03;22.83;;;;;;;1.41;100.00;99812.78;6247721;23;20208;-79
2022/12/31 03:34:02;;;;;;;49.40;22.73;;;;;;;1.46;100.00;99803.41;6245557;23;20204;-78
2022/12/31 03:36:29;;;;;;;34.23;21.73;;;;;;;1.43;100.00;99805.56;6245315;23;20215;-78
2022/12/31 03:38:55;;;;;;;30.63;21.33;;;;;;;1.42;100.00;99811.81;6247939;23;20187;-79
2022/12/31 03:41:22;;;;;;;33.13;21.93;;;;;;;1.42;100.00;99830.28;6246770;23;20204;-79
2022/12/31 03:43:49;;;;;;;36.60;22.20;;;;;;;1.44;100.00;99838.91;6246707;23;20200;-78
2022/12/31 03:46:15;;;;;;;35.47;22.90;;;;;;;1.50;100.00;99839.09;6245032;23;20212;-79
2022/12/31 03:48:42;;;;;;;32.53;21.67;;;;;;;1.54;100.00;99850.19;6247381;23;20653;-79
2022/12/31 03:51:08;;;;;;;35.53;22.23;;;;;;;1.52;100.00;99850.34;6247243;23;20208;-78
2022/12/31 03:53:35;;;;;;;34.00;22.13;;;;;;;1.58;100.00;99846.25;6247162;23;20685;-79
2022/12/31 03:56:01;;;;;;;35.27;22.50;;;;;;;1.59;100.00;99835.50;6247053;23;20209;-78
2022/12/31 03:58:29;;;;;;;32.27;21.80;;;;;;;1.62;100.00;99824.66;6253444;23;20213;-80
2022/12/31 04:00:56;;;;;;;33.40;23.13;;;;;;;1.62;100.00;99824.66;6229751;23;20283;-80
2022/12/31 04:03:24;;;;;;;32.80;22.60;;;;;;;1.67;100.00;99829.44;6228758;23;20272;-79
2022/12/31 04:05:53;;;;;;;34.33;21.93;;;;;;;1.66;100.00;99830.44;6253129;23;20208;-79
2022/12/31 04:08:19;;;;;;;32.50;22.30;;;;;;;1.66;100.00;99848.91;6226056;23;20204;-80
2022/12/31 04:10:46;;;;;;;29.80;21.03;;;;;;;1.61;100.00;99845.91;6226259;23;20216;-79
2022/12/31 04:13:13;;;;;;;32.97;22.37;;;;;;;1.61;100.00;99848.56;6252682;23;20219;-80
2022/12/31 04:15:40;;;;;;;31.90;21.67;;;;;;;1.57;100.00;99837.50;6252851;23;20211;-79
2022/12/31 04:18:06;;;;;;;32.83;22.20;;;;;;;1.55;100.00;99835.97;6224842;23;20279;-79
2022/12/31 04:20:33;;;;;;;31.20;21.87;;;;;;;1.62;100.00;99829.94;6225084;23;20270;-80
2022/12/31 04:22:59;;;;;;;30.03;21.90;;;;;;;1.68;100.00;99833.75;6251275;23;20201;-79
2022/12/31 04:25:26;;;;;;;30.00;21.93;;;;;;;1.62;100.00;99834.38;6223311;23;20209;-79
2022/12/31 04:27:53;;;;;;;33.30;22.77;;;;;;;1.66;100.00;99854.19;6246511;23;20205;-79
2022/12/31 04:30:19;;;;;;;51.80;22.83;;;;;;;1.68;100.00;99865.44;6219476;23;20208;-78
2022/12/31 04:32:46;;;;;;;37.80;22.13;;;;;;;1.68;100.00;99871.53;6244684;23;20284;-78
2022/12/31 04:35:12;;;;;;;32.90;22.13;;;;;;;1.73;100.00;99874.53;6244787;23;20216;-78
2022/12/31 04:37:39;;;;;;;30.93;22.20;;;;;;;1.73;100.00;99887.75;6244914;23;20262;-78
2022/12/31 04:40:06;;;;;;;31.60;21.97;;;;;;;1.74;100.00;99870.09;6217981;23;20212;-77
2022/12/31 04:42:34;;;;;;;31.27;22.77;;;;;;;1.74;100.00;99880.66;6245291;23;20219;-78
2022/12/31 04:45:00;;;;;;;33.83;22.80;;;;;;;1.81;100.00;99875.56;6244938;23;20661;-79
2022/12/31 04:47:27;;;;;;;33.07;22.80;;;;;;;1.86;100.00;99881.22;6244714;23;20283;-79
2022/12/31 04:49:54;;;;;;;34.20;23.33;;;;;;;1.86;100.00;99878.56;6244920;23;20209;-78
2022/12/31 04:52:21;;;;;;;33.17;23.20;;;;;;;1.89;100.00;99867.69;6244984;23;20532;-78
2022/12/31 04:54:47;;;;;;;37.60;22.23;;;;;;;1.87;100.00;99861.75;6217868;23;20207;-78
2022/12/31 04:57:14;;;;;;;33.03;22.43;;;;;;;1.86;100.00;99873.28;6218260;23;20220;-79
2022/12/31 04:59:40;;;;;;;32.13;22.83;;;;;;;1.87;100.00;99880.25;6244595;23;20740;-78
2022/12/31 05:02:07;;;;;;;36.97;22.77;;;;;;;1.85;100.00;99876.91;6243997;23;20287;-78
2022/12/31 05:04:34;;;;;;;31.63;22.07;;;;;;;1.89;100.00;99876.44;6216625;23;20215;-78
2022/12/31 05:07:01;;;;;;;31.93;22.70;;;;;;;1.95;100.00;99881.09;6052642;23;20570;-79
2022/12/31 05:09:27;;;;;;;30.47;21.30;;;;;;;1.89;100.00;99880.88;6153616;23;20279;-79
2022/12/31 05:11:54;;;;;;;31.40;22.43;;;;;;;1.96;100.00;99866.06;6092003;23;20672;-78
2022/12/31 05:14:21;;;;;;;30.90;21.97;;;;;;;1.96;100.00;99863.44;6091728;23;20537;-77
2022/12/31 05:16:47;;;;;;;30.97;22.77;;;;;;;1.99;100.00;99863.09;6192179;23;20282;-78
2022/12/31 05:19:14;;;;;;;31.40;22.07;;;;;;;1.97;100.00;99862.41;6091993;23;20291;-79
2022/12/31 05:21:41;;;;;;;30.07;22.10;;;;;;;2.07;100.00;99876.34;6091617;23;20208;-79
2022/12/31 05:24:07;;;;;;;30.33;21.90;;;;;;;2.06;100.00;99874.69;6066256;23;20669;-78
2022/12/31 05:26:34;;;;;;;32.17;22.40;;;;;;;2.15;100.00;99886.94;6091630;23;20216;-78
2022/12/31 05:29:00;;;;;;;32.30;22.23;;;;;;;2.13;100.00;99887.13;6066173;23;20223;-78
2022/12/31 05:31:27;;;;;;;30.20;22.30;;;;;;;2.14;100.00;99893.25;6091534;23;20220;-77
2022/12/31 05:33:54;;;;;;;31.27;22.90;;;;;;;2.23;100.00;99900.22;6091299;23;20733;-78
2022/12/31 05:36:20;;;;;;;28.07;20.93;;;;;;;2.24;100.00;99909.78;6091520;23;20205;-79
2022/12/31 05:38:47;;;;;;;29.03;21.87;;;;;;;2.28;100.00;99903.22;6091696;23;20216;-79
2022/12/31 05:41:13;;;;;;;27.90;21.47;;;;;;;2.45;100.00;99891.69;6091995;23;20203;-78
2022/12/31 05:43:40;;;;;;;27.50;20.93;;;;;;;2.36;100.00;99899.75;6092088;23;20204;-79
2022/12/31 05:46:07;;;;;;;30.17;22.30;;;;;;;2.37;100.00;99907.53;6092670;23;20219;-77
2022/12/31 05:48:33;;;;;;;27.77;21.67;;;;;;;2.41;100.00;99898.28;6092801;23;20207;-78
2022/12/31 05:51:00;;;;;;;30.33;22.60;;;;;;;2.40;100.00;99893.97;6092807;23;20204;-78
2022/12/31 05:53:26;;;;;;;29.67;21.27;;;;;;;2.40;100.00;99898.44;6092780;23;20208;-79
2022/12/31 05:55:53;;;;;;;29.70;22.30;;;;;;;2.48;100.00;99903.75;6092254;23;20291;-79
2022/12/31 05:58:20;;;;;;;28.87;21.30;;;;;;;2.44;100.00;99900.59;6092521;23;20223;-79
2022/12/31 06:00:46;;;;;;;27.93;21.17;;;;;;;2.48;100.00;99904.56;6092368;23;20212;-79
2022/12/31 06:03:13;;;;;;;26.60;20.60;;;;;;;2.46;100.00;99917.16;6092588;23;20219;-78
2022/12/31 06:05:41;;;;;;;28.23;21.43;;;;;;;2.51;100.00;99916.66;6191450;23;20211;-78
2022/12/31 06:08:09;;;;;;;27.90;21.20;;;;;;;2.53;100.00;99914.66;6219279;23;20185;-78
2022/12/31 06:10:37;;;;;;;28.33;21.13;;;;;;;2.57;100.00;99905.41;6246083;23;20561;-78
2022/12/31 06:13:03;;;;;;;29.53;21.87;;;;;;;2.64;100.00;99898.50;6245842;23;20209;-79
2022/12/31 06:15:30;;;;;;;27.50;21.93;;;;;;;2.70;100.00;99904.97;6246069;23;20201;-78
2022/12/31 06:17:57;;;;;;;26.93;21.30;;;;;;;2.69;100.00;99914.72;6246130;23;20227;-78
2022/12/31 06:20:24;;;;;;;26.50;20.90;;;;;;;2.71;100.00;99910.09;6245474;23;20197;-79
2022/12/31 06:22:50;;;;;;;28.93;21.20;;;;;;;2.71;100.00;99909.28;6246156;23;20200;-79
2022/12/31 06:25:17;;;;;;;25.80;20.60;;;;;;;2.76;100.00;99910.44;6219779;23;20212;-78
2022/12/31 06:27:44;;;;;;;26.27;20.93;;;;;;;2.79;100.00;99912.75;6246173;23;20721;-79
2022/12/31 06:30:11;;;;;;;28.30;21.40;;;;;;;2.82;100.00;99920.38;6218940;23;20692;-77
2022/12/31 06:32:39;;;;;;;27.40;20.50;;;;;;;2.84;100.00;99912.28;6246104;23;20283;-79
2022/12/31 06:35:06;;;;;;;27.57;21.03;;;;;;;2.81;100.00;99910.75;6219771;23;20283;-79
2022/12/31 06:37:33;;;;;;;24.97;20.13;;;;;;;2.82;100.00;99911.59;6246092;23;20208;-79
2022/12/31 06:39:59;;;;;;;26.37;20.17;;;;;;;2.91;100.00;99919.38;6245931;23;20201;-78
2022/12/31 06:42:30;;;;;;;26.50;20.70;;;;;;;2.92;100.00;99920.22;6193744;23;20543;-78
2022/12/31 06:44:57;;;;;;;26.23;21.00;;;;;;;2.84;100.00;99921.03;6219696;23;20191;-78
2022/12/31 06:47:24;;;;;;;25.63;20.47;;;;;;;2.89;100.00;99902.03;6245900;23;20204;-79
2022/12/31 06:49:52;;;;;;;24.97;20.57;;;;;;;2.94;100.00;99905.81;6219496;23;20702;-79
2022/12/31 06:52:19;;;;;;;27.27;20.13;;;;;;;2.97;100.00;99902.03;6245179;23;20282;-78
2022/12/31 06:54:46;;;;;;;25.50;20.20;;;;;;;2.97;100.00;99908.16;6219061;23;20213;-79
2022/12/31 06:57:13;;;;;;;26.57;20.63;;;;;;;2.97;100.00;99921.38;6245544;23;20207;-78
2022/12/31 06:59:40;;;;;;;27.40;20.80;;;;;;;2.97;100.00;99931.97;6248290;23;20209;-78
2022/12/31 07:02:29;;;;;;;25.00;19.93;;;;;;;3.08;100.00;99929.00;6245211;23;20657;-78
2022/12/31 07:05:12;;;;;;;26.27;20.60;;;;;;;3.12;100.00;99929.50;6219027;23;20605;-78
2022/12/31 07:07:57;;;;;;;27.50;21.37;;;;;;;3.04;100.00;99942.72;6219268;23;20668;-78
2022/12/31 07:10:38;;;;;;;26.43;21.03;;;;;;;2.98;100.00;99949.53;6218614;23;20276;-78
2022/12/31 07:13:28;;;;;;;26.83;21.23;;;;;;;3.02;100.00;99950.84;6219636;23;20205;-80
2022/12/31 07:16:15;;;;;;;27.77;21.10;;;;;;;3.06;100.00;99946.88;6219835;23;20592;-78
2022/12/31 07:18:47;;;;;;;27.67;21.87;;;;;;;3.15;100.00;99946.88;6244992;23;20208;-78
2022/12/31 07:21:17;;;;;;;26.30;20.90;;;;;;;3.03;100.00;99952.47;6245996;23;20200;-78
2022/12/31 07:23:43;;;;;;;27.50;21.73;;;;;;;3.22;100.00;99958.47;6245828;23;20547;-78
2022/12/31 07:26:23;;;;;;;28.13;21.90;;;;;;;3.32;100.00;99967.06;6245347;23;20258;-77
2022/12/31 07:28:59;;;;;;;27.17;21.40;;;;;;;3.41;100.00;99960.78;6245278;23;20234;-78
2022/12/31 07:32:06;;;;;;;25.70;20.77;;;;;;;3.48;100.00;99972.38;6221656;23;20725;-79
2022/12/31 07:34:48;;;;;;;27.10;21.73;;;;;;;3.38;100.00;99975.19;6217592;23;20699;-79
2022/12/31 07:37:47;;;;;;;27.47;20.97;;;;;;;3.48;100.00;99970.56;6245674;23;20216;-78
2022/12/31 07:40:31;;;;;;;27.87;22.20;;;;;;;3.55;100.00;99974.19;6243086;23;20211;-77
2022/12/31 07:43:35;;;;;;;30.30;22.07;;;;;;;3.66;100.00;99958.94;6218815;23;20263;-79
2022/12/31 07:46:32;;;;;;;25.30;20.43;;;;;;;3.76;100.00;99964.91;6244444;23;20212;-77
2022/12/31 07:49:00;;;;;;;25.57;20.33;;;;;;;3.83;100.00;99957.94;6245955;23;20650;-78
2022/12/31 07:51:27;;;;;;;22.63;18.87;;;;;;;3.97;100.00;99967.84;6246080;23;20788;-79
2022/12/31 07:53:53;;;;;;;24.30;20.20;;;;;;;4.07;100.00;99957.88;6245823;23;20288;-78
2022/12/31 07:56:20;;;;;;;24.43;20.00;;;;;;;4.19;100.00;99967.16;6247498;23;21431;-79
2022/12/31 07:58:50;;;;;;;23.67;20.47;;;;;;;4.13;100.00;99965.16;6250454;23;20235;-78
2022/12/31 08:01:42;;;;;;;23.40;19.80;;;;;;;4.16;100.00;99969.28;6248618;23;20212;-79
2022/12/31 08:04:55;;;;;;;22.10;19.40;;;;;;;4.19;100.00;99987.53;6229280;23;20208;-78
2022/12/31 08:07:42;;;;;;;21.17;18.23;;;;;;;4.31;100.00;99984.34;6242622;23;20707;-78
2022/12/31 08:10:18;;;;;;;24.90;20.57;;;;;;;4.39;100.00;99989.59;6245226;23;20665;-78
2022/12/31 08:12:46;;;;;;;25.63;21.90;;;;;;;4.45;100.00;99980.16;6222501;23;20208;-79
2022/12/31 08:15:15;;;;;;;24.50;21.50;;;;;;;4.56;100.00;99963.84;6220670;23;20204;-79
2022/12/31 08:17:42;;;;;;;25.27;20.63;;;;;;;4.75;100.00;99970.56;6227697;23;20185;-79
2022/12/31 08:20:13;;;;;;;35.90;28.60;;;;;;;4.91;100.00;99965.16;6245582;23;20204;-78
2022/12/31 08:22:52;;;;;;;39.70;30.90;;;;;;;5.07;100.00;99970.38;6219192;23;20204;-79
2022/12/31 08:25:32;;;;;;;31.33;25.87;;;;;;;5.19;100.00;99966.28;6246175;23;20204;-78
2022/12/31 08:28:12;;;;;;;30.17;25.03;;;;;;;5.27;100.00;99968.88;6219694;23;20315;-78
2022/12/31 08:31:07;;;;;;;26.70;23.40;;;;;;;5.38;100.00;99975.63;6218928;23;20211;-79
2022/12/31 08:34:13;;;;;;;24.40;21.27;;;;;;;5.40;100.00;99972.81;6246239;23;20208;-79
2022/12/31 08:37:00;;;;;;;25.27;22.57;;;;;;;5.45;100.00;99968.59;6094014;23;20235;-79
2022/12/31 08:39:42;;;;;;;24.50;21.80;;;;;;;5.47;100.00;99973.72;6213922;23;20219;-80
2022/12/31 08:42:18;;;;;;;25.43;22.50;;;;;;;5.67;100.00;99988.19;6244771;23;20204;-78
2022/12/31 08:45:11;;;;;;;24.47;21.17;;;;;;;5.80;100.00;100000.88;6219587;23;20208;-79
2022/12/31 08:47:52;;;;;;;23.40;20.63;;;;;;;5.86;100.00;99995.66;6237638;23;20204;-79
2022/12/31 08:50:25;;;;;;;21.77;19.20;;;;;;;6.00;100.00;100000.22;6220470;23;20213;-78
2022/12/31 08:52:52;;;;;;;21.17;18.40;;;;;;;6.02;100.00;99986.75;6246384;23;20201;-79
2022/12/31 08:55:20;;;;;;;18.70;16.73;;;;;;;6.08;100.00;99993.97;6246178;23;20204;-79
2022/12/31 08:58:19;;;;;;;20.57;17.50;;;;;;;6.11;100.00;100001.63;6219784;23;20624;-79
2022/12/31 09:00:49;;;;;;;19.07;17.07;;;;;;;6.16;100.00;99977.91;6233546;23;20673;-79
2022/12/31 09:03:28;;;;;;;19.27;17.17;;;;;;;6.23;100.00;99978.03;6218854;23;20236;-79
2022/12/31 09:06:17;;;;;;;19.30;17.27;;;;;;;6.35;100.00;99995.19;6217958;23;20269;-79
2022/12/31 09:08:50;;;;;;;20.07;17.97;;;;;;;6.30;100.00;99985.09;6245735;23;20210;-79
2022/12/31 09:11:23;;;;;;;19.47;17.17;;;;;;;6.39;100.00;99980.53;6219888;23;20211;-79
2022/12/31 09:13:58;;;;;;;18.87;16.87;;;;;;;6.47;100.00;99989.22;6219452;23;20211;-79
2022/12/31 09:16:51;;;;;;;19.43;17.43;;;;;;;6.58;100.00;99988.75;6245382;23;20207;-79
2022/12/31 09:19:18;;;;;;;19.63;17.63;;;;;;;6.58;100.00;99995.91;6246603;23;20212;-79
2022/12/31 09:21:45;;;;;;;19.70;17.70;;;;;;;6.58;100.00;99980.75;6247575;23;20214;-79
2022/12/31 09:24:13;;;;;;;21.43;18.83;;;;;;;6.64;100.00;99955.25;6220717;23;20291;-79
2022/12/31 09:26:50;;;;;;;26.07;21.90;;;;;;;6.64;100.00;99968.56;6220867;23;20283;-79
2022/12/31 09:29:26;;;;;;;21.17;18.60;;;;;;;6.64;100.00;99971.22;6221131;23;20741;-79
2022/12/31 09:31:58;;;;;;;19.87;17.77;;;;;;;6.71;100.00;99964.16;6247843;23;20238;-79
2022/12/31 09:34:32;;;;;;;20.53;18.33;;;;;;;6.81;100.00;99972.63;6247725;23;20204;-79
2022/12/31 09:37:02;;;;;;;18.93;17.03;;;;;;;6.92;100.00;99971.34;6248042;23;20283;-79
2022/12/31 09:39:38;;;;;;;18.93;16.93;;;;;;;6.89;100.00;99980.53;6247893;23;20684;-79
2022/12/31 09:42:24;;;;;;;19.20;17.20;;;;;;;7.01;100.00;99988.84;6247073;23;20204;-79
2022/12/31 09:45:14;;;;;;;18.90;16.80;;;;;;;6.87;100.00;99982.56;6247865;23;20213;-79
2022/12/31 09:48:05;;;;;;;18.33;16.37;;;;;;;6.75;100.00;99978.75;6247641;23;20284;-79
2022/12/31 09:50:55;;;;;;;18.77;16.77;;;;;;;6.27;100.00;99996.09;6247449;23;20210;-78
2022/12/31 09:53:52;;;;;;;19.53;17.43;;;;;;;6.51;100.00;100013.63;6221804;23;20213;-79
2022/12/31 09:56:26;;;;;;;18.63;16.73;;;;;;;6.59;100.00;99977.09;6221008;23;20284;-78
2022/12/31 09:59:05;;;;;;;20.07;17.93;;;;;;;6.50;100.00;99990.69;6221748;23;20203;-78
2022/12/31 10:01:46;;;;;;;20.33;16.97;;;;;;;6.58;100.00;99972.78;6222108;23;20255;-79
2022/12/31 10:04:32;;;;;;;19.37;17.27;;;;;;;6.51;100.00;99989.69;6247711;23;20589;-78
2022/12/31 10:07:04;;;;;;;19.77;16.83;;;;;;;6.64;100.00;99984.53;6248314;23;20255;-80
2022/12/31 10:09:49;;;;;;;18.77;16.83;;;;;;;6.71;100.00;99985.44;6221230;23;20207;-78
2022/12/31 10:12:56;;;;;;;18.77;16.77;;;;;;;6.83;100.00;99985.78;6247400;23;20251;-79
2022/12/31 10:16:00;;;;;;;18.47;16.57;;;;;;;6.92;100.00;99993.47;6179631;23;20278;-79
2022/12/31 10:18:45;;;;;;;18.27;16.37;;;;;;;7.02;100.00;99975.38;6247545;23;20216;-78
2022/12/31 10:21:36;;;;;;;21.77;17.33;;;;;;;6.99;100.00;99972.25;6248304;23;20211;-79
2022/12/31 10:24:28;;;;;;;17.70;15.90;;;;;;;7.06;100.00;99968.63;6247184;23;20212;-79
2022/12/31 10:26:57;;;;;;;19.07;17.07;;;;;;;7.13;100.00;99963.41;6248213;23;20212;-79
2022/12/31 10:29:39;;;;;;;18.53;16.43;;;;;;;6.93;100.00;99978.31;6247805;23;20205;-79
2022/12/31 10:32:16;;;;;;;18.40;16.50;;;;;;;7.06;100.00;99967.81;6246476;23;20228;-79
2022/12/31 10:34:43;;;;;;;17.90;16.10;;;;;;;7.15;100.00;99977.34;6247382;23;20281;-78
2022/12/31 10:37:16;;;;;;;19.33;17.33;;;;;;;7.17;100.00;99985.97;6247550;23;20200;-79
2022/12/31 10:40:04;;;;;;;21.47;19.27;;;;;;;7.27;100.00;99988.34;6220473;23;20208;-79
2022/12/31 10:42:50;;;;;;;21.53;19.33;;;;;;;7.36;100.00;99982.69;6246719;23;20215;-78
2022/12/31 10:45:52;;;;;;;20.70;18.60;;;;;;;7.50;100.00;99981.81;6247944;23;20380;-78
2022/12/31 10:48:48;;;;;;;21.13;18.93;;;;;;;7.67;100.00;99969.00;6154385;23;20214;-79
2022/12/31 10:51:32;;;;;;;27.63;24.47;;;;;;;7.75;100.00;99963.53;6231406;23;20681;-79
2022/12/31 10:54:17;;;;;;;25.67;22.87;;;;;;;7.81;100.00;99973.44;6247518;23;20208;-79
2022/12/31 10:57:05;;;;;;;24.67;22.00;;;;;;;7.81;100.00;99976.09;6220242;23;20236;-79
2022/12/31 10:59:51;;;;;;;21.93;19.73;;;;;;;7.64;100.00;99960.59;6245202;23;20219;-78
2022/12/31 11:02:38;;;;;;;20.50;18.40;;;;;;;7.58;100.00;99956.00;6245844;23;20208;-78
2022/12/31 11:05:23;;;;;;;21.73;19.53;;;;;;;7.72;100.00;99965.78;6247108;23;20657;-79
2022/12/31 11:08:17;;;;;;;22.07;19.63;;;;;;;7.79;100.00;99956.00;6247013;23;20212;-79
2022/12/31 11:11:11;;;;;;;21.07;18.73;;;;;;;7.79;100.00;99969.34;6246229;23;20204;-80
2022/12/31 11:13:47;;;;;;;20.47;18.37;;;;;;;7.83;100.00;99965.25;6246178;23;20292;-79
2022/12/31 11:16:37;;;;;;;21.97;19.67;;;;;;;7.88;100.00;99960.16;6244381;23;20266;-80
2022/12/31 11:19:28;;;;;;;22.17;19.80;;;;;;;7.98;100.00;99949.94;6220049;23;20324;-79
2022/12/31 11:22:07;;;;;;;20.90;18.70;;;;;;;7.83;100.00;99939.41;6246855;23;20238;-79
2022/12/31 11:25:06;;;;;;;21.10;18.90;;;;;;;7.76;100.00;99927.84;6246013;23;20264;-79
2022/12/31 11:28:02;;;;;;;20.00;18.00;;;;;;;7.92;100.00;99929.41;6218325;23;20231;-78
2022/12/31 11:30:48;;;;;;;20.93;18.73;;;;;;;8.10;100.00;99947.56;6246350;23;20212;-79
2022/12/31 11:33:49;;;;;;;21.73;19.53;;;;;;;8.15;100.00;99958.50;6246943;23;20205;-79
2022/12/31 11:36:27;;;;;;;20.73;18.63;;;;;;;8.27;100.00;99951.56;6246277;23;20212;-79
2022/12/31 11:39:23;;;;;;;20.20;18.20;;;;;;;8.37;100.00;99952.91;6246599;23;20680;-79
2022/12/31 11:42:18;;;;;;;21.47;19.27;;;;;;;8.53;100.00;99935.75;6245292;23;20250;-79
2022/12/31 11:45:00;;;;;;;21.27;18.90;;;;;;;8.63;100.00;99927.34;6220181;23;20215;-79
2022/12/31 11:47:41;;;;;;;20.40;18.30;;;;;;;8.79;100.00;99933.16;6220862;23;20280;-79
2022/12/31 11:50:31;;;;;;;20.63;18.43;;;;;;;8.89;100.00;99916.75;6246821;23;20653;-79
2022/12/31 11:53:24;;;;;;;20.77;18.57;;;;;;;8.89;100.00;99922.09;6248088;23;20212;-79
2022/12/31 11:56:03;;;;;;;19.43;17.33;;;;;;;8.89;100.00;99926.59;6220720;23;20232;-80
2022/12/31 11:58:30;;;;;;;20.27;18.17;;;;;;;8.85;100.00;99926.19;6246800;23;20204;-79
2022/12/31 12:01:21;;;;;;;20.20;18.10;;;;;;;8.91;100.00;99928.06;6247250;23;20208;-79